createdAt,value
2022-12-13T00:00:35.297Z,44.50
2022-12-13T00:01:35.315Z,47.82
2022-12-13T00:02:35.335Z,55.23
2022-12-13T00:03:35.293Z,64.97
2022-12-13T00:04:35.247Z,56.05
2022-12-13T00:05:35.251Z,48.28
2022-12-13T00:06:35.272Z,63.07
2022-12-13T00:07:35.234Z,51.99
2022-12-13T00:08:35.223Z,46.64
2022-12-13T00:09:35.201Z,49.08
2022-12-13T00:10:35.218Z,54.35
2022-12-13T00:11:35.219Z,47.52
2022-12-13T00:12:35.207Z,43.61
2022-12-13T00:13:35.166Z,43.55
2022-12-13T00:14:35.158Z,50.39
2022-12-13T00:15:35.145Z,53.01
2022-12-13T00:16:35.156Z,47.36
2022-12-13T00:17:35.151Z,45.20
2022-12-13T00:18:35.120Z,50.80
2022-12-13T00:19:35.125Z,48.73
2022-12-13T00:20:35.109Z,53.44
2022-12-13T00:21:35.082Z,55.56
2022-12-13T00:22:35.079Z,67.94
2022-12-13T00:23:35.091Z,54.49
2022-12-13T00:24:35.096Z,52.26
2022-12-13T00:25:35.054Z,53.00
2022-12-13T00:26:35.050Z,49.39
2022-12-13T00:27:35.038Z,47.28
2022-12-13T00:28:35.026Z,48.66
2022-12-13T00:29:35.049Z,53.63
2022-12-13T00:30:35.044Z,46.18
2022-12-13T00:32:37.000Z,55.92
2022-12-13T00:33:35.021Z,52.18
2022-12-13T00:34:34.984Z,52.40
2022-12-13T00:35:34.957Z,52.32
2022-12-13T00:36:34.967Z,49.75
2022-12-13T00:37:34.942Z,48.07
2022-12-13T00:38:34.926Z,43.99
2022-12-13T00:39:34.967Z,44.82
2022-12-13T00:40:34.922Z,56.06
2022-12-13T00:41:34.906Z,60.99
2022-12-13T00:42:34.909Z,52.25
2022-12-13T00:43:34.875Z,49.55
2022-12-13T00:44:34.907Z,48.69
2022-12-13T00:45:34.870Z,60.23
2022-12-13T00:46:34.884Z,47.08
2022-12-13T00:47:34.850Z,65.99
2022-12-13T00:48:34.845Z,47.01
2022-12-13T00:49:34.889Z,47.74
2022-12-13T00:50:34.824Z,52.76
2022-12-13T00:51:34.834Z,53.82
2022-12-13T00:52:34.806Z,51.54
2022-12-13T00:53:34.796Z,61.25
2022-12-13T00:54:34.780Z,48.83
2022-12-13T00:55:34.783Z,48.21
2022-12-13T00:56:34.798Z,46.90
2022-12-13T00:57:34.757Z,51.16
2022-12-13T00:58:34.760Z,52.00
2022-12-13T00:59:34.753Z,60.98
2022-12-13T01:00:34.737Z,51.29
2022-12-13T01:01:34.756Z,50.60
2022-12-13T01:02:34.715Z,62.99
2022-12-13T01:03:34.747Z,50.47
2022-12-13T01:04:34.710Z,48.01
2022-12-13T01:06:13.272Z,49.91
2022-12-13T01:06:36.704Z,52.16
2022-12-13T01:07:34.661Z,45.36
2022-12-13T01:08:34.662Z,44.85
2022-12-13T01:09:34.641Z,48.24
2022-12-13T01:10:34.656Z,49.68
2022-12-13T01:11:34.631Z,49.75
2022-12-13T01:12:34.607Z,50.16
2022-12-13T01:13:34.606Z,53.56
2022-12-13T01:14:34.601Z,52.59
2022-12-13T01:15:34.633Z,48.89
2022-12-13T01:16:34.619Z,48.39
2022-12-13T01:17:34.571Z,55.30
2022-12-13T01:18:34.552Z,51.36
2022-12-13T01:19:34.571Z,58.16
2022-12-13T01:20:34.538Z,68.53
2022-12-13T01:21:34.530Z,58.42
2022-12-13T01:22:34.556Z,57.63
2022-12-13T01:23:34.507Z,63.12
2022-12-13T01:24:34.496Z,57.13
2022-12-13T01:25:34.500Z,57.46
2022-12-13T01:26:34.474Z,58.30
2022-12-13T01:27:34.495Z,54.91
2022-12-13T01:28:34.472Z,56.05
2022-12-13T01:29:34.455Z,57.94
2022-12-13T01:30:34.485Z,52.40
2022-12-13T01:31:34.436Z,53.70
2022-12-13T01:32:34.458Z,54.09
2022-12-13T01:33:34.413Z,55.80
2022-12-13T01:34:34.426Z,59.79
2022-12-13T01:35:34.405Z,72.39
2022-12-13T01:36:38.214Z,72.61
2022-12-13T01:37:37.570Z,72.83
2022-12-13T01:38:37.599Z,72.04
2022-12-13T01:39:37.977Z,60.11
2022-12-13T01:40:38.591Z,51.58
2022-12-13T01:41:34.345Z,47.54
2022-12-13T01:42:34.338Z,46.36
2022-12-13T01:43:34.331Z,52.52
2022-12-13T01:44:34.496Z,60.97
2022-12-13T01:45:34.304Z,48.65
2022-12-13T01:46:34.392Z,48.22
2022-12-13T01:47:34.312Z,54.33
2022-12-13T01:48:34.279Z,57.50
2022-12-13T01:49:34.283Z,56.85
2022-12-13T01:50:34.263Z,55.56
2022-12-13T01:51:34.247Z,54.40
2022-12-13T01:52:34.251Z,49.74
2022-12-13T01:53:34.223Z,48.09
2022-12-13T01:54:34.504Z,45.77
2022-12-13T01:55:34.215Z,47.08
2022-12-13T01:56:35.232Z,48.43
2022-12-13T01:57:34.195Z,50.75
2022-12-13T01:58:34.182Z,52.99
2022-12-13T01:59:34.187Z,54.53
2022-12-13T02:00:34.159Z,48.52
2022-12-13T02:01:34.201Z,54.72
2022-12-13T02:02:34.167Z,53.94
2022-12-13T02:03:34.135Z,49.44
2022-12-13T02:04:34.205Z,49.79
2022-12-13T02:05:34.165Z,57.25
2022-12-13T02:06:34.148Z,51.37
2022-12-13T02:07:34.101Z,49.07
2022-12-13T02:08:35.823Z,45.03
2022-12-13T02:09:34.090Z,54.95
2022-12-13T02:10:34.069Z,63.71
2022-12-13T02:11:34.073Z,48.31
2022-12-13T02:12:34.096Z,53.06
2022-12-13T02:13:34.064Z,51.30
2022-12-13T02:14:34.045Z,51.24
2022-12-13T02:15:34.046Z,52.58
2022-12-13T02:16:34.029Z,62.08
2022-12-13T02:17:34.031Z,57.79
2022-12-13T02:18:34.001Z,53.32
2022-12-13T02:19:33.989Z,45.63
2022-12-13T02:20:33.978Z,48.21
2022-12-13T02:21:33.990Z,48.71
2022-12-13T02:22:33.979Z,49.25
2022-12-13T02:23:33.962Z,54.22
2022-12-13T02:24:33.966Z,53.95
2022-12-13T02:25:33.966Z,54.53
2022-12-13T02:26:33.932Z,51.40
2022-12-13T02:27:33.945Z,48.98
2022-12-13T02:28:34.930Z,48.94
2022-12-13T02:29:33.912Z,67.45
2022-12-13T02:30:33.929Z,52.75
2022-12-13T02:31:33.904Z,59.98
2022-12-13T02:32:33.881Z,49.52
2022-12-13T02:33:33.866Z,54.68
2022-12-13T02:34:34.270Z,56.87
2022-12-13T02:35:33.896Z,49.11
2022-12-13T02:36:36.317Z,47.63
2022-12-13T02:37:33.824Z,61.01
2022-12-13T02:38:33.827Z,49.78
2022-12-13T02:39:33.807Z,45.30
2022-12-13T02:40:33.812Z,53.65
2022-12-13T02:41:33.811Z,56.39
2022-12-13T02:42:33.777Z,50.77
2022-12-13T02:43:34.109Z,61.57
2022-12-13T02:44:33.770Z,53.39
2022-12-13T02:45:33.765Z,63.87
2022-12-13T02:46:33.788Z,58.56
2022-12-13T02:47:33.727Z,48.01
2022-12-13T02:48:33.705Z,49.74
2022-12-13T02:49:33.724Z,61.59
2022-12-13T02:50:33.710Z,46.71
2022-12-13T02:51:33.734Z,49.59
2022-12-13T02:52:33.696Z,50.10
2022-12-13T02:53:33.982Z,66.96
2022-12-13T02:54:33.681Z,45.04
2022-12-13T02:55:33.667Z,47.85
2022-12-13T02:56:33.686Z,47.73
2022-12-13T02:57:33.635Z,54.77
2022-12-13T02:58:33.643Z,46.49
2022-12-13T02:59:33.622Z,53.69
2022-12-13T03:00:33.610Z,49.96
2022-12-13T03:01:39.989Z,51.89
2022-12-13T03:02:34.699Z,58.24
2022-12-13T03:03:33.694Z,58.01
2022-12-13T03:04:41.103Z,47.82
2022-12-13T03:05:33.547Z,48.47
2022-12-13T03:06:34.647Z,48.91
2022-12-13T03:07:33.520Z,49.31
2022-12-13T03:08:33.519Z,58.36
2022-12-13T03:09:33.513Z,55.34
2022-12-13T03:10:33.521Z,51.35
2022-12-13T03:11:33.480Z,54.52
2022-12-13T03:12:33.476Z,52.18
2022-12-13T03:13:33.473Z,56.95
2022-12-13T03:14:33.506Z,50.96
2022-12-13T03:15:33.471Z,50.20
2022-12-13T03:16:33.435Z,48.32
2022-12-13T03:17:33.428Z,49.20
2022-12-13T03:18:33.414Z,50.80
2022-12-13T03:19:33.411Z,65.91
2022-12-13T03:20:33.419Z,53.90
2022-12-13T03:21:33.400Z,53.11
2022-12-13T03:22:33.392Z,57.04
2022-12-13T03:23:33.400Z,53.97
2022-12-13T03:24:33.379Z,56.96
2022-12-13T03:25:33.374Z,57.98
2022-12-13T03:26:33.377Z,49.29
2022-12-13T03:27:33.339Z,52.96
2022-12-13T03:28:33.352Z,59.52
2022-12-13T03:29:33.336Z,53.28
2022-12-13T03:30:33.318Z,48.14
2022-12-13T03:31:33.335Z,51.10
2022-12-13T03:32:33.297Z,50.40
2022-12-13T03:33:33.326Z,48.94
2022-12-13T03:34:44.585Z,56.67
2022-12-13T03:35:45.156Z,50.22
2022-12-13T03:36:34.267Z,48.03
2022-12-13T03:37:33.247Z,52.34
2022-12-13T03:38:33.253Z,55.64
2022-12-13T03:39:33.444Z,59.47
2022-12-13T03:40:33.228Z,57.37
2022-12-13T03:41:33.211Z,52.66
2022-12-13T03:42:33.202Z,54.33
2022-12-13T03:43:33.212Z,55.86
2022-12-13T03:44:33.209Z,65.11
2022-12-13T03:45:33.180Z,51.41
2022-12-13T03:46:33.202Z,55.50
2022-12-13T03:47:33.155Z,52.31
2022-12-13T03:48:33.140Z,53.38
2022-12-13T03:49:35.093Z,51.54
2022-12-13T03:50:33.130Z,55.22
2022-12-13T03:51:33.119Z,52.54
2022-12-13T03:52:33.121Z,53.10
2022-12-13T03:53:34.567Z,53.81
2022-12-13T03:54:33.325Z,60.28
2022-12-13T03:55:33.112Z,56.26
2022-12-13T03:56:33.071Z,54.05
2022-12-13T03:57:33.062Z,55.64
2022-12-13T03:58:35.321Z,52.82
2022-12-13T03:59:33.069Z,56.59
2022-12-13T04:00:33.031Z,60.67
2022-12-13T04:01:33.060Z,54.57
2022-12-13T04:02:33.018Z,53.76
2022-12-13T04:03:33.003Z,57.16
2022-12-13T04:04:33.021Z,55.11
2022-12-13T04:05:32.992Z,57.00
2022-12-13T04:06:33.386Z,55.25
2022-12-13T04:07:34.612Z,62.65
2022-12-13T04:08:33.028Z,58.04
2022-12-13T04:09:32.963Z,53.02
2022-12-13T04:10:32.998Z,59.06
2022-12-13T04:11:32.935Z,55.87
2022-12-13T04:12:32.930Z,66.22
2022-12-13T04:13:32.941Z,64.04
2022-12-13T04:14:32.909Z,56.38
2022-12-13T04:15:32.892Z,62.49
2022-12-13T04:16:32.932Z,56.79
2022-12-13T04:17:32.881Z,55.68
2022-12-13T04:18:32.865Z,67.60
2022-12-13T04:19:32.876Z,58.49
2022-12-13T04:20:32.846Z,58.20
2022-12-13T04:21:32.854Z,55.63
2022-12-13T04:22:32.829Z,56.09
2022-12-13T04:23:32.814Z,54.51
2022-12-13T04:24:32.836Z,58.01
2022-12-13T04:25:32.798Z,56.83
2022-12-13T04:26:32.802Z,50.68
2022-12-13T04:27:32.802Z,52.76
2022-12-13T04:28:32.772Z,57.54
2022-12-13T04:29:34.687Z,63.16
2022-12-13T04:30:32.754Z,56.98
2022-12-13T04:31:32.806Z,53.98
2022-12-13T04:32:32.747Z,67.33
2022-12-13T04:33:32.833Z,56.29
2022-12-13T04:34:37.220Z,59.46
2022-12-13T04:35:32.704Z,57.35
2022-12-13T04:36:32.996Z,65.48
2022-12-13T04:37:33.678Z,59.02
2022-12-13T04:38:32.681Z,66.11
2022-12-13T04:39:34.328Z,64.59
2022-12-13T04:40:32.682Z,58.07
2022-12-13T04:41:34.441Z,63.38
2022-12-13T04:42:32.659Z,63.73
2022-12-13T04:43:32.683Z,58.09
2022-12-13T04:44:36.563Z,54.14
2022-12-13T04:45:33.641Z,58.24
2022-12-13T04:46:32.617Z,64.07
2022-12-13T04:47:32.632Z,58.28
2022-12-13T04:48:32.610Z,63.25
2022-12-13T04:49:32.577Z,54.12
2022-12-13T04:50:32.563Z,66.81
2022-12-13T04:51:33.562Z,57.81
2022-12-13T04:52:32.548Z,64.79
2022-12-13T04:53:32.580Z,56.48
2022-12-13T04:54:36.176Z,61.97
2022-12-13T04:55:32.512Z,58.72
2022-12-13T04:56:32.508Z,60.57
2022-12-13T04:57:32.500Z,57.89
2022-12-13T04:58:32.527Z,56.63
2022-12-13T04:59:32.495Z,56.71
2022-12-13T05:00:32.468Z,55.95
2022-12-13T05:01:32.518Z,56.23
2022-12-13T05:02:32.584Z,56.84
2022-12-13T05:03:32.460Z,58.61
2022-12-13T05:04:33.322Z,56.20
2022-12-13T05:05:33.445Z,59.02
2022-12-13T05:06:32.426Z,58.25
2022-12-13T05:07:32.418Z,58.72
2022-12-13T05:08:32.441Z,59.95
2022-12-13T05:09:32.422Z,59.15
2022-12-13T05:10:37.804Z,60.45
2022-12-13T05:11:35.388Z,60.52
2022-12-13T05:12:32.359Z,60.65
2022-12-13T05:13:32.363Z,56.39
2022-12-13T05:14:32.361Z,59.29
2022-12-13T05:15:32.353Z,57.35
2022-12-13T05:16:32.390Z,57.98
2022-12-13T05:17:32.314Z,57.68
2022-12-13T05:18:32.307Z,56.15
2022-12-13T05:19:32.295Z,66.85
2022-12-13T05:20:32.289Z,58.27
2022-12-13T05:21:32.285Z,59.10
2022-12-13T05:22:32.288Z,58.63
2022-12-13T05:23:32.265Z,57.97
2022-12-13T05:24:32.260Z,57.14
2022-12-13T05:25:32.235Z,57.42
2022-12-13T05:26:32.219Z,58.19
2022-12-13T05:27:32.275Z,61.28
2022-12-13T05:28:32.211Z,64.15
2022-12-13T05:29:32.192Z,56.33
2022-12-13T05:30:32.210Z,58.20
2022-12-13T05:31:32.267Z,59.99
2022-12-13T05:32:32.183Z,64.21
2022-12-13T05:33:32.174Z,59.30
2022-12-13T05:34:32.164Z,62.40
2022-12-13T05:35:32.178Z,64.86
2022-12-13T05:36:32.130Z,59.67
2022-12-13T05:37:34.758Z,57.66
2022-12-13T05:38:32.148Z,59.62
2022-12-13T05:39:32.160Z,65.37
2022-12-13T05:40:32.097Z,66.82
2022-12-13T05:41:32.086Z,60.62
2022-12-13T05:42:32.091Z,59.75
2022-12-13T05:43:42.320Z,60.16
2022-12-13T05:44:32.055Z,59.13
2022-12-13T05:45:32.303Z,59.92
2022-12-13T05:46:36.828Z,60.17
2022-12-13T05:47:32.044Z,59.43
2022-12-13T05:48:32.032Z,59.55
2022-12-13T05:49:32.236Z,59.37
2022-12-13T05:50:32.016Z,59.75
2022-12-13T05:51:32.032Z,59.67
2022-12-13T05:52:31.985Z,60.57
2022-12-13T05:53:31.984Z,57.96
2022-12-13T05:54:31.975Z,60.90
2022-12-13T05:55:31.980Z,60.59
2022-12-13T05:56:31.941Z,63.08
2022-12-13T05:57:31.967Z,61.97
2022-12-13T05:58:35.937Z,57.06
2022-12-13T05:59:31.942Z,57.00
2022-12-13T06:00:31.928Z,59.06
2022-12-13T06:01:31.943Z,59.58
2022-12-13T06:02:32.068Z,64.68
2022-12-13T06:03:32.013Z,67.54
2022-12-13T06:04:31.881Z,59.28
2022-12-13T06:05:31.868Z,61.01
2022-12-13T06:06:31.865Z,66.54
2022-12-13T06:07:31.873Z,60.24
2022-12-13T06:08:31.893Z,60.23
2022-12-13T06:09:31.823Z,60.53
2022-12-13T06:10:34.881Z,60.46
2022-12-13T06:11:32.648Z,59.96
2022-12-13T06:12:32.804Z,60.56
2022-12-13T06:13:32.595Z,59.72
2022-12-13T06:14:31.788Z,59.52
2022-12-13T06:15:34.790Z,60.40
2022-12-13T06:16:31.834Z,62.47
2022-12-13T06:17:31.846Z,59.96
2022-12-13T06:18:31.744Z,61.18
2022-12-13T06:19:31.747Z,60.47
2022-12-13T06:20:31.724Z,63.18
2022-12-13T06:21:41.258Z,62.90
2022-12-13T06:22:33.713Z,61.51
2022-12-13T06:23:31.720Z,62.06
2022-12-13T06:24:31.693Z,64.47
2022-12-13T06:25:32.236Z,61.82
2022-12-13T06:26:32.704Z,64.89
2022-12-13T06:27:31.661Z,61.05
2022-12-13T06:28:31.689Z,65.92
2022-12-13T06:29:31.643Z,65.34
2022-12-13T06:30:31.746Z,68.45
2022-12-13T06:31:31.664Z,62.52
2022-12-13T06:32:31.619Z,62.18
2022-12-13T06:33:31.609Z,62.14
2022-12-13T06:34:31.593Z,60.43
2022-12-13T06:35:35.266Z,61.90
2022-12-13T06:36:33.594Z,60.59
2022-12-13T06:37:31.606Z,60.35
2022-12-13T06:38:33.148Z,59.77
2022-12-13T06:39:32.711Z,62.69
2022-12-13T06:40:31.549Z,60.76
2022-12-13T06:41:32.353Z,61.28
2022-12-13T06:42:32.551Z,60.79
2022-12-13T06:43:31.520Z,60.82
2022-12-13T06:44:31.714Z,61.12
2022-12-13T06:45:31.497Z,61.82
2022-12-13T06:46:31.559Z,69.16
2022-12-13T06:47:32.589Z,60.55
2022-12-13T06:48:31.471Z,58.83
2022-12-13T06:49:32.381Z,60.02
2022-12-13T06:50:31.470Z,60.14
2022-12-13T06:51:33.094Z,62.63
2022-12-13T06:52:31.443Z,62.22
2022-12-13T06:53:31.427Z,60.00
2022-12-13T06:54:31.423Z,60.01
2022-12-13T06:55:31.429Z,68.82
2022-12-13T06:56:31.417Z,60.97
2022-12-13T06:57:31.390Z,62.11
2022-12-13T06:58:31.403Z,67.94
2022-12-13T06:59:31.367Z,65.90
2022-12-13T07:00:38.176Z,59.60
2022-12-13T07:01:36.761Z,60.68
2022-12-13T07:02:32.515Z,67.69
2022-12-13T07:03:31.394Z,61.53
2022-12-13T07:04:31.539Z,60.39
2022-12-13T07:05:31.332Z,64.88
2022-12-13T07:06:31.317Z,62.50
2022-12-13T07:07:31.299Z,67.66
2022-12-13T07:08:31.343Z,61.73
2022-12-13T07:09:31.286Z,61.12
2022-12-13T07:10:31.288Z,60.08
2022-12-13T07:11:31.254Z,65.05
2022-12-13T07:12:31.252Z,61.17
2022-12-13T07:13:31.261Z,63.15
2022-12-13T07:14:31.239Z,61.91
2022-12-13T07:15:31.257Z,60.71
2022-12-13T07:16:31.256Z,62.01
2022-12-13T07:17:31.870Z,64.62
2022-12-13T07:18:32.193Z,60.29
2022-12-13T07:19:35.223Z,60.53
2022-12-13T07:20:31.185Z,60.60
2022-12-13T07:21:31.216Z,60.95
2022-12-13T07:22:34.855Z,63.24
2022-12-13T07:23:31.137Z,61.84
2022-12-13T07:24:31.136Z,61.45
2022-12-13T07:25:32.132Z,61.05
2022-12-13T07:26:31.139Z,63.18
2022-12-13T07:27:31.132Z,64.85
2022-12-13T07:28:31.097Z,61.33
2022-12-13T07:29:31.093Z,61.80
2022-12-13T07:30:31.088Z,59.62
2022-12-13T07:31:31.116Z,67.80
2022-12-13T07:32:31.090Z,62.70
2022-12-13T07:33:31.053Z,62.84
2022-12-13T07:34:31.054Z,62.49
2022-12-13T07:35:31.038Z,64.12
2022-12-13T07:36:32.024Z,60.35
2022-12-13T07:37:31.329Z,60.50
2022-12-13T07:38:32.064Z,59.69
2022-12-13T07:39:31.020Z,62.17
2022-12-13T07:40:30.985Z,59.61
2022-12-13T07:41:31.054Z,61.92
2022-12-13T07:42:30.983Z,61.05
2022-12-13T07:43:30.965Z,63.74
2022-12-13T07:44:31.003Z,64.26
2022-12-13T07:45:30.947Z,60.43
2022-12-13T07:46:32.487Z,60.13
2022-12-13T07:47:30.940Z,57.98
2022-12-13T07:48:30.953Z,57.83
2022-12-13T07:49:30.926Z,59.91
2022-12-13T07:50:37.352Z,59.77
2022-12-13T07:51:31.897Z,61.00
2022-12-13T07:52:30.886Z,61.46
2022-12-13T07:53:33.206Z,56.94
2022-12-13T07:54:30.882Z,59.09
2022-12-13T07:55:33.222Z,60.48
2022-12-13T07:56:30.851Z,66.09
2022-12-13T07:57:30.833Z,59.73
2022-12-13T07:58:31.112Z,62.42
2022-12-13T07:59:30.844Z,59.93
2022-12-13T08:00:30.819Z,58.32
2022-12-13T08:01:30.863Z,60.09
2022-12-13T08:02:30.800Z,57.82
2022-12-13T08:03:30.812Z,60.94
2022-12-13T08:04:37.453Z,60.57
2022-12-13T08:05:38.324Z,60.92
2022-12-13T08:06:31.771Z,62.49
2022-12-13T08:07:30.735Z,61.07
2022-12-13T08:08:31.655Z,60.32
2022-12-13T08:09:30.763Z,62.06
2022-12-13T08:10:30.720Z,60.30
2022-12-13T08:11:30.714Z,60.71
2022-12-13T08:12:30.735Z,60.21
2022-12-13T08:13:30.694Z,61.67
2022-12-13T08:14:30.677Z,61.41
2022-12-13T08:15:31.706Z,61.07
2022-12-13T08:16:30.791Z,61.18
2022-12-13T08:17:30.654Z,62.91
2022-12-13T08:18:30.667Z,59.57
2022-12-13T08:19:30.662Z,59.21
2022-12-13T08:20:30.643Z,60.88
2022-12-13T08:21:53.290Z,60.39
2022-12-13T08:22:36.102Z,60.88
2022-12-13T08:23:30.605Z,60.79
2022-12-13T08:24:30.658Z,61.31
2022-12-13T08:25:30.583Z,65.19
2022-12-13T08:26:30.573Z,59.94
2022-12-13T08:27:30.583Z,58.70
2022-12-13T08:28:30.553Z,61.07
2022-12-13T08:29:34.371Z,60.46
2022-12-13T08:30:30.554Z,60.55
2022-12-13T08:31:34.016Z,59.98
2022-12-13T08:32:30.544Z,58.57
2022-12-13T08:33:30.519Z,62.55
2022-12-13T08:34:30.526Z,67.47
2022-12-13T08:35:34.012Z,59.62
2022-12-13T08:36:31.505Z,58.96
2022-12-13T08:37:30.462Z,61.07
2022-12-13T08:38:30.475Z,58.91
2022-12-13T08:39:30.474Z,60.16
2022-12-13T08:40:30.473Z,62.21
2022-12-13T08:41:34.464Z,60.13
2022-12-13T08:42:32.436Z,59.20
2022-12-13T08:43:30.414Z,67.46
2022-12-13T08:44:30.409Z,66.95
2022-12-13T08:45:30.423Z,63.30
2022-12-13T08:46:30.429Z,61.56
2022-12-13T08:47:30.393Z,61.20
2022-12-13T08:48:30.364Z,67.84
2022-12-13T08:49:30.378Z,61.03
2022-12-13T08:50:30.394Z,61.12
2022-12-13T08:51:35.612Z,60.04
2022-12-13T08:52:31.330Z,61.89
2022-12-13T08:53:40.667Z,67.90
2022-12-13T08:54:31.941Z,68.06
2022-12-13T08:55:32.274Z,62.04
2022-12-13T08:56:30.299Z,60.42
2022-12-13T08:57:30.289Z,59.72
2022-12-13T08:58:30.272Z,61.78
2022-12-13T08:59:30.271Z,60.97
2022-12-13T09:00:36.070Z,66.99
2022-12-13T09:01:31.282Z,59.95
2022-12-13T09:02:30.313Z,57.93
2022-12-13T09:03:30.226Z,64.49
2022-12-13T09:04:31.412Z,64.38
2022-12-13T09:06:02.618Z,60.57
2022-12-13T09:06:30.218Z,60.52
2022-12-13T09:07:30.246Z,58.90
2022-12-13T09:08:35.027Z,58.59
2022-12-13T09:09:31.186Z,59.66
2022-12-13T09:10:38.259Z,62.44
2022-12-13T09:11:34.965Z,58.10
2022-12-13T09:12:31.276Z,60.34
2022-12-13T09:13:31.544Z,59.36
2022-12-13T09:14:34.169Z,60.37
2022-12-13T09:15:34.008Z,66.15
2022-12-13T09:16:30.285Z,57.56
2022-12-13T09:17:30.280Z,59.42
2022-12-13T09:18:36.647Z,60.34
2022-12-13T09:19:36.956Z,65.39
2022-12-13T09:20:31.112Z,60.09
2022-12-13T09:21:32.222Z,59.46
2022-12-13T09:22:33.228Z,61.18
2022-12-13T09:23:30.289Z,59.73
2022-12-13T09:24:36.663Z,62.48
2022-12-13T09:25:36.792Z,59.63
2022-12-13T09:26:37.805Z,61.62
2022-12-13T09:27:31.018Z,63.37
2022-12-13T09:28:31.026Z,60.45
2022-12-13T09:29:29.991Z,60.87
2022-12-13T09:30:31.645Z,61.58
2022-12-13T09:31:30.063Z,60.41
2022-12-13T09:32:29.972Z,60.02
2022-12-13T09:33:31.334Z,62.81
2022-12-13T09:34:30.004Z,62.35
2022-12-13T09:35:30.022Z,64.02
2022-12-13T09:36:29.936Z,61.83
2022-12-13T09:37:29.923Z,61.78
2022-12-13T09:38:29.906Z,59.25
2022-12-13T09:39:29.909Z,61.76
2022-12-13T09:40:29.980Z,67.36
2022-12-13T09:41:29.921Z,60.58
2022-12-13T09:42:30.176Z,60.83
2022-12-13T09:43:32.743Z,62.12
2022-12-13T09:44:45.133Z,61.42
2022-12-13T09:45:32.022Z,64.85
2022-12-13T09:46:34.880Z,60.21
2022-12-13T09:47:35.438Z,60.81
2022-12-13T09:48:34.620Z,59.65
2022-12-13T09:49:34.880Z,60.45
2022-12-13T09:50:37.083Z,61.83
2022-12-13T09:51:41.203Z,58.32
2022-12-13T09:52:33.428Z,60.64
2022-12-13T09:53:33.410Z,60.44
2022-12-13T09:54:29.788Z,61.69
2022-12-13T09:55:30.273Z,61.86
2022-12-13T09:56:29.738Z,58.17
2022-12-13T09:57:31.253Z,59.18
2022-12-13T09:58:29.716Z,62.05
2022-12-13T09:59:29.741Z,61.49
2022-12-13T10:00:29.722Z,60.76
2022-12-13T10:01:29.754Z,60.93
2022-12-13T10:02:29.879Z,59.75
2022-12-13T10:03:29.687Z,61.54
2022-12-13T10:04:29.663Z,61.07
2022-12-13T10:05:37.247Z,59.47
2022-12-13T10:06:30.672Z,60.11
2022-12-13T10:07:29.615Z,61.30
2022-12-13T10:08:29.620Z,60.36
2022-12-13T10:09:29.649Z,59.65
2022-12-13T10:10:29.590Z,58.37
2022-12-13T10:11:31.756Z,58.83
2022-12-13T10:12:29.582Z,60.04
2022-12-13T10:13:29.590Z,58.64
2022-12-13T10:14:29.562Z,56.84
2022-12-13T10:15:29.586Z,57.10
2022-12-13T10:16:36.165Z,62.45
2022-12-13T10:17:29.545Z,59.84
2022-12-13T10:18:30.554Z,59.05
2022-12-13T10:19:30.253Z,63.18
2022-12-13T10:20:30.501Z,60.27
2022-12-13T10:21:29.483Z,59.90
2022-12-13T10:22:29.501Z,62.50
2022-12-13T10:23:47.075Z,61.13
2022-12-13T10:24:36.750Z,59.88
2022-12-13T10:25:30.466Z,60.86
2022-12-13T10:26:29.488Z,59.53
2022-12-13T10:27:29.458Z,60.40
2022-12-13T10:28:29.476Z,61.84
2022-12-13T10:29:29.420Z,60.70
2022-12-13T10:30:29.581Z,59.99
2022-12-13T10:31:30.478Z,59.05
2022-12-13T10:32:29.386Z,59.46
2022-12-13T10:33:29.379Z,60.50
2022-12-13T10:34:29.373Z,65.38
2022-12-13T10:35:29.403Z,58.49
2022-12-13T10:36:29.378Z,61.99
2022-12-13T10:37:29.351Z,60.83
2022-12-13T10:38:31.943Z,67.46
2022-12-13T10:39:29.341Z,60.11
2022-12-13T10:40:32.161Z,64.69
2022-12-13T10:41:29.332Z,61.86
2022-12-13T10:42:33.900Z,61.62
2022-12-13T10:43:30.297Z,59.90
2022-12-13T10:44:29.265Z,61.72
2022-12-13T10:45:29.309Z,59.93
2022-12-13T10:46:29.280Z,63.87
2022-12-13T10:47:29.258Z,61.64
2022-12-13T10:48:29.258Z,60.99
2022-12-13T10:49:30.273Z,61.90
2022-12-13T10:50:29.283Z,61.05
2022-12-13T10:51:29.218Z,59.55
2022-12-13T10:52:31.652Z,59.35
2022-12-13T10:53:29.223Z,60.31
2022-12-13T10:54:29.235Z,61.24
2022-12-13T10:55:30.220Z,61.51
2022-12-13T10:56:29.180Z,61.52
2022-12-13T10:57:29.178Z,58.63
2022-12-13T10:58:29.161Z,58.21
2022-12-13T10:59:29.207Z,58.09
2022-12-13T11:00:29.156Z,58.77
2022-12-13T11:01:29.175Z,61.84
2022-12-13T11:02:29.274Z,61.84
2022-12-13T11:03:29.115Z,58.25
2022-12-13T11:04:29.126Z,58.42
2022-12-13T11:05:29.080Z,57.96
2022-12-13T11:06:29.086Z,59.86
2022-12-13T11:07:29.089Z,65.35
2022-12-13T11:08:29.240Z,59.73
2022-12-13T11:09:29.086Z,61.09
2022-12-13T11:10:30.045Z,60.66
2022-12-13T11:11:29.058Z,59.26
2022-12-13T11:12:29.062Z,59.29
2022-12-13T11:13:29.017Z,60.99
2022-12-13T11:14:32.343Z,61.05
2022-12-13T11:15:28.994Z,60.54
2022-12-13T11:16:29.020Z,62.57
2022-12-13T11:17:28.989Z,60.35
2022-12-13T11:18:28.954Z,60.63
2022-12-13T11:19:28.994Z,57.98
2022-12-13T11:20:28.998Z,59.90
2022-12-13T11:21:28.963Z,57.64
2022-12-13T11:22:28.908Z,60.35
2022-12-13T11:23:28.918Z,60.69
2022-12-13T11:24:28.887Z,65.02
2022-12-13T11:25:28.901Z,60.16
2022-12-13T11:26:28.914Z,59.47
2022-12-13T11:27:28.904Z,59.51
2022-12-13T11:28:28.886Z,59.06
2022-12-13T11:29:28.881Z,61.71
2022-12-13T11:30:28.875Z,58.73
2022-12-13T11:31:28.900Z,60.39
2022-12-13T11:32:28.816Z,67.67
2022-12-13T11:33:28.830Z,60.65
2022-12-13T11:34:28.853Z,68.63
2022-12-13T11:35:28.803Z,60.55
2022-12-13T11:36:28.788Z,59.54
2022-12-13T11:37:28.769Z,58.96
2022-12-13T11:38:28.797Z,59.53
2022-12-13T11:39:28.769Z,59.58
2022-12-13T11:40:28.764Z,58.25
2022-12-13T11:41:31.663Z,60.57
2022-12-13T11:42:28.736Z,64.86
2022-12-13T11:43:28.730Z,60.22
2022-12-13T11:44:28.695Z,60.35
2022-12-13T11:45:28.736Z,60.52
2022-12-13T11:46:28.720Z,60.16
2022-12-13T11:47:28.671Z,64.43
2022-12-13T11:48:29.079Z,58.17
2022-12-13T11:49:28.646Z,61.31
2022-12-13T11:50:33.558Z,58.95
2022-12-13T11:51:28.635Z,60.65
2022-12-13T11:52:28.639Z,63.06
2022-12-13T11:53:29.120Z,59.59
2022-12-13T11:54:28.616Z,62.53
2022-12-13T11:55:28.625Z,60.83
2022-12-13T11:56:28.646Z,60.84
2022-12-13T11:57:28.589Z,60.65
2022-12-13T11:59:29.803Z,62.86
2022-12-13T12:00:33.682Z,63.59
2022-12-13T12:01:28.575Z,60.20
2022-12-13T12:02:28.677Z,60.04
2022-12-13T12:03:28.615Z,59.78
2022-12-13T12:04:28.519Z,60.30
2022-12-13T12:05:28.635Z,61.69
2022-12-13T12:06:28.493Z,68.14
2022-12-13T12:07:33.241Z,60.48
2022-12-13T12:08:43.172Z,63.10
2022-12-13T12:09:29.459Z,60.20
2022-12-13T12:10:28.496Z,60.80
2022-12-13T12:11:28.509Z,67.39
2022-12-13T12:12:28.461Z,64.11
2022-12-13T12:13:28.466Z,60.72
2022-12-13T12:14:28.501Z,67.24
2022-12-13T12:15:28.425Z,60.39
2022-12-13T12:16:28.528Z,60.52
2022-12-13T12:17:31.260Z,59.91
2022-12-13T12:18:28.871Z,67.94
2022-12-13T12:19:28.370Z,66.00
2022-12-13T12:20:28.421Z,62.17
2022-12-13T12:21:42.698Z,59.97
2022-12-13T12:22:30.341Z,59.79
2022-12-13T12:23:28.332Z,60.62
2022-12-13T12:24:28.358Z,60.89
2022-12-13T12:25:28.345Z,63.93
2022-12-13T12:26:28.340Z,62.55
2022-12-13T12:27:28.294Z,62.73
2022-12-13T12:28:28.782Z,63.62
2022-12-13T12:29:28.287Z,62.70
2022-12-13T12:30:28.252Z,62.06
2022-12-13T12:31:28.429Z,60.98
2022-12-13T12:32:28.253Z,61.35
2022-12-13T12:33:28.261Z,63.23
2022-12-13T12:34:28.269Z,64.97
2022-12-13T12:35:28.219Z,62.82
2022-12-13T12:36:30.205Z,66.27
2022-12-13T12:37:28.197Z,60.99
2022-12-13T12:38:28.737Z,60.37
2022-12-13T12:39:28.266Z,59.93
2022-12-13T12:40:40.097Z,59.73
2022-12-13T12:41:30.168Z,62.25
2022-12-13T12:42:28.155Z,60.80
2022-12-13T12:43:28.696Z,59.67
2022-12-13T12:44:30.864Z,61.87
2022-12-13T12:45:55.212Z,60.81
2022-12-13T12:46:30.151Z,60.70
2022-12-13T12:47:48.994Z,60.16
2022-12-13T12:48:52.020Z,58.39
2022-12-13T12:49:30.111Z,62.20
2022-12-13T12:50:28.080Z,60.91
2022-12-13T12:51:28.058Z,64.75
2022-12-13T12:52:28.096Z,61.83
2022-12-13T12:53:28.041Z,61.47
2022-12-13T12:54:32.302Z,61.80